Etusivu
METAR-TAF:

METAR-TAF

Lentoasemat :

Harbin, Kiina

Leveyspiiri: 45-45N, Pituuspiiri: 126-46E, korkeus merenpinnasta: 143 m

Tämänhetkinen sää

Tämä raportti tehtiin 17 tuntia ja 46 minuuttia sitten, kello 15.00 UTC
Tuuli 4 kn etelästä
Lämpötila -21°C
Kosteus 70%
Ilmanpaine 1021 hPa
Näkyvyys 10 km tai enemmän
ei pilviä alle 1500 m:ssä eikä cumulonimbus-pilviä

METAR: ZYHB 201500Z 19002MPS CAVOK M21/M25 Q1021 NOSIG

Aika: 16:46 (08:46 UTC)

Sääennuste

Tämä raportti tehtiin 23 tuntia ja 45 minuuttia sitten, kello 09.01 UTC
Ennuste voimassa 20. päivästä klo 12 UTC - 21. päivään klo 12 UTC
Tuuli 8 kn lännestä
Näkyvyys: 5000 m
Hajanaisia pilviä 3300 ft:n korkeudessa
usvaa

TAF: ZYHB 200901Z 2012/2112 26004MPS 5000 HZ SCT033 TXM08/06Z TNM20/21Z

Säähavainnot ja -ennusteet yli 4000 lentoasemalta (METAR- ja TAF-raportit).

Käytössä olevat sääasemat on merkitty karttaan keltaisilla ja punaisilla pisteillä.

Aseta hiiri pisteen päälle nähdäksesi sääaseman nimen.

Klikkaa sitten nähdäksesi säähavainnot ja -ennusteet.

Kartan vaihtaminen: klikkaa mustalla rastilla varustettuja vihreitä pisteitä, niin voit zoomata sisään; viivalla varustettua vihreää pistettä, niin voit zoomata ulos tai vihreitä nuolia, niin pääset viereisille kartoille.


METAR-TAF: